Share

Andravida, Greece

12:35 PM EEST on April 24, 2014 (GMT +0300)
Andravida Air Base (LGAD) Elev 46 ft | 37.92 °N, 21.29 °E | Change Station
Active Advisory: Thunderstorms

Current weather conditions updated 15 minutes ago

Mostly Cloudy
Mostly Cloudy
64 °F
Feels Like 64 °F
N
7
Wind Variable Wind from South
Sunrise 6:47 AM
Sunset 8:18 PM
Moon Waning Crescent

Today is forecast to be Much Cooler than yesterday. Showers possible.

Pressure 29.86 in
Visibility 6.2 miles
Clouds Few 1000 ft
Mostly Cloudy 2000 ft
Mostly Cloudy 8000 ft
Dew Point 57 °F
Humidity 77%
Rainfall 0.00 in
Snow Depth Not available.
UV 5 out of 16
Pollen Not available.
Air Quality Not available.
Flu Activity Not available.
METAR LGAD 240920Z 19006KT 9999 FEW010 BKN020 BKN080 18/14 Q1011

More Conditions Fewer Conditions

Pressure 29.86 in
Visibility 6.2 miles
Clouds Few 1000 ft
Mostly Cloudy 2000 ft
Mostly Cloudy 8000 ft
Dew Point 57 °F
Humidity 77%
Rainfall 0.00 in
Snow Depth Not available.
UV 5 out of 16
Pollen Not available.
Air Quality Not available.
Flu Activity Not available.
METAR LGAD 240920Z 19006KT 9999 FEW010 BKN020 BKN080 18/14 Q1011

More Conditions Fewer Conditions

10-Day Weather Forecast

Almanac

Astronomy

Apr. 24, 2014 Rise Set
Actual Time 6:47 AM EEST 8:18 PM EEST
Civil Twilight 6:20 AM EEST 8:46 PM EEST
Nautical Twilight 5:46 AM EEST 9:20 PM EEST
Astronomical Twilight 5:11 AM EEST 9:55 PM EEST
Moon 3:41 AM EEST 3:18 PM EEST
Length of Visible Light 14h 26m
Length of Day
13h 31m
Tomorrow will be 2m 13s longer.
Waning Crescent, 27% of the Moon is Illuminated
Today
Waning Crescent
Apr 29
New
May 6
First Quarter
May 14
Full
May 21
Last Quarter

Yesterday's Extremes

Country Highs Country Lows

Community

  • Stacked
    Stacked
  • clouds approaching Red Sox Nation
    clouds approaching Red Sox Nation
  • Balance
    Balance
  • Nestled In
    Nestled In
  • Stunning Sunrise
    Stunning Sunrise

WunderPhotos

Upload Photos

1,704,575 photos uploaded!

WunderBlogs® & News

Nearby

Snow Depth

Not available.

Coastal Water Temperatures

Place Temperature
No Stations Reporting

Earthquake Activity

City Distance Mag. Time & Date
No recent earthquake activity has been reported nearby.
Minimum magnitude displayed is 2.5.

Nearby Weather Stations

There are no personal weather stations in this area.

What do you think?

We're not finished. Please let us know what you like, what you don't like, and what you are still missing.